Vendor, Arkansas
Current Conditions -  °F | °C
As of 1:53 PM on Monday 24 Nov 2014 (Local Time) from KHRO Reporting Station
Clear Clear  
Wind Chill: 51°   Ceiling: Unl
Heat Index: 51°   Visibility: 10mi
Dew Point: 23°   Wind: 20mph
Humidity: 33%   Direction: 280°W
Pressure: 29.82"   Gusts: 32mph
Location:  35.95°N, 93.08°W
Report Text: KHRO 241953Z AUTO 28017G28KT 10SM CLR 11/M05 A2982 RMK AO2 PK WND 28028/1951 SLP100 T01061050
Loading
Personal Weather Stations






























Interactive Weather Map New forecast layout! Learn more

10-Day Weather Forecast

Advertisements
Track Severe Weather on mobile